createdAt,value
2023-02-19T00:01:44.519Z,12.40
2023-02-19T00:04:19.072Z,12.30
2023-02-19T00:06:47.108Z,12.30
2023-02-19T00:09:15.649Z,12.30
2023-02-19T00:11:43.904Z,12.20
2023-02-19T00:14:15.036Z,12.20
2023-02-19T00:16:41.980Z,12.20
2023-02-19T00:19:13.328Z,12.20
2023-02-19T00:21:40.257Z,12.20
2023-02-19T00:24:08.408Z,12.20
2023-02-19T00:26:35.822Z,12.20
2023-02-19T00:29:02.985Z,12.10
2023-02-19T00:31:35.017Z,12.10
2023-02-19T00:34:04.531Z,12.10
2023-02-19T00:36:33.139Z,12.00
2023-02-19T00:39:00.107Z,12.00
2023-02-19T00:41:27.360Z,12.00
2023-02-19T00:43:54.236Z,12.00
2023-02-19T00:46:30.595Z,12.00
2023-02-19T00:48:58.290Z,12.00
2023-02-19T00:51:27.799Z,12.00
2023-02-19T00:53:55.219Z,12.00
2023-02-19T00:56:22.463Z,12.00
2023-02-19T00:58:50.042Z,12.00
2023-02-19T01:01:17.384Z,12.00
2023-02-19T01:03:44.329Z,11.90
2023-02-19T01:06:13.144Z,11.80
2023-02-19T01:08:40.253Z,11.80
2023-02-19T01:11:09.311Z,11.80
2023-02-19T01:13:37.296Z,11.80
2023-02-19T01:16:12.470Z,11.80
2023-02-19T01:18:40.199Z,11.80
2023-02-19T01:21:09.975Z,11.80
2023-02-19T01:23:37.580Z,11.80
2023-02-19T01:26:09.778Z,11.80
2023-02-19T01:28:36.678Z,11.70
2023-02-19T01:31:05.506Z,11.80
2023-02-19T01:33:33.189Z,11.80
2023-02-19T01:36:00.164Z,11.80
2023-02-19T01:38:27.790Z,11.80
2023-02-19T01:41:00.336Z,11.90
2023-02-19T01:43:28.062Z,11.90
2023-02-19T01:45:55.190Z,12.00
2023-02-19T01:48:30.887Z,12.10
2023-02-19T01:51:14.779Z,12.10
2023-02-19T01:53:49.735Z,12.00
2023-02-19T01:56:18.968Z,12.10
2023-02-19T01:58:46.829Z,12.00
2023-02-19T02:01:14.258Z,11.90
2023-02-19T02:03:45.302Z,11.90
2023-02-19T02:06:26.023Z,11.80
2023-02-19T02:09:14.668Z,11.70
2023-02-19T02:11:59.420Z,11.70
2023-02-19T02:14:31.146Z,11.60
2023-02-19T02:17:20.157Z,11.50
2023-02-19T02:20:37.701Z,11.50
2023-02-19T02:23:04.551Z,11.50
2023-02-19T02:26:07.057Z,11.60
2023-02-19T02:29:00.597Z,11.60
2023-02-19T02:31:36.064Z,11.70
2023-02-19T02:34:12.026Z,11.70
2023-02-19T02:36:43.514Z,11.70
2023-02-19T02:39:17.071Z,11.60
2023-02-19T02:41:45.866Z,11.70
2023-02-19T02:44:13.690Z,11.70
2023-02-19T02:46:44.942Z,11.70
2023-02-19T02:49:21.804Z,11.70
2023-02-19T02:51:52.982Z,11.70
2023-02-19T02:54:53.633Z,11.70
2023-02-19T02:57:21.234Z,11.70
2023-02-19T02:59:49.248Z,11.70
2023-02-19T03:02:23.349Z,11.70
2023-02-19T03:05:24.474Z,11.70
2023-02-19T03:08:06.208Z,11.70
2023-02-19T03:10:57.265Z,11.70
2023-02-19T03:14:12.544Z,11.70
2023-02-19T03:17:01.070Z,11.60
2023-02-19T03:19:30.220Z,11.60
2023-02-19T03:22:14.585Z,11.60
2023-02-19T03:25:06.184Z,11.60
2023-02-19T03:27:36.125Z,11.60
2023-02-19T03:30:09.740Z,11.70
2023-02-19T03:32:51.360Z,11.70
2023-02-19T03:35:23.180Z,11.70
2023-02-19T03:37:57.490Z,11.70
2023-02-19T03:40:29.637Z,11.70
2023-02-19T03:43:01.542Z,11.70
2023-02-19T03:45:56.686Z,11.60
2023-02-19T03:48:33.350Z,11.60
2023-02-19T03:51:27.687Z,11.60
2023-02-19T03:54:16.994Z,11.60
2023-02-19T03:57:03.877Z,11.60
2023-02-19T03:59:36.757Z,11.50
2023-02-19T04:02:30.481Z,11.50
2023-02-19T04:05:19.029Z,11.40
2023-02-19T04:07:50.895Z,11.40
2023-02-19T04:10:20.271Z,11.40
2023-02-19T04:13:20.053Z,11.40
2023-02-19T04:15:48.637Z,11.40
2023-02-19T04:18:23.036Z,11.40
2023-02-19T04:20:51.047Z,11.40
2023-02-19T04:23:23.247Z,11.40
2023-02-19T04:25:54.915Z,11.40
2023-02-19T04:28:22.042Z,11.30
2023-02-19T04:30:49.212Z,11.30
2023-02-19T04:33:16.140Z,11.30
2023-02-19T04:35:43.098Z,11.30
2023-02-19T04:38:10.066Z,11.20
2023-02-19T04:40:36.937Z,11.20
2023-02-19T04:43:03.900Z,11.20
2023-02-19T04:45:30.788Z,11.30
2023-02-19T04:48:00.535Z,11.30
2023-02-19T04:50:27.515Z,11.20
2023-02-19T04:52:54.481Z,11.30
2023-02-19T04:55:21.476Z,11.20
2023-02-19T04:57:48.539Z,11.20
2023-02-19T05:00:15.573Z,11.20
2023-02-19T05:02:42.525Z,11.10
2023-02-19T05:05:09.417Z,11.20
2023-02-19T05:07:36.317Z,11.10
2023-02-19T05:10:03.221Z,11.00
2023-02-19T05:12:31.276Z,11.00
2023-02-19T05:14:58.382Z,11.00
2023-02-19T05:17:25.473Z,11.00
2023-02-19T05:19:52.367Z,11.00
2023-02-19T05:22:19.300Z,11.10
2023-02-19T05:24:46.172Z,11.10
2023-02-19T05:27:13.201Z,11.10
2023-02-19T05:29:40.099Z,11.10
2023-02-19T05:32:07.091Z,11.20
2023-02-19T05:34:34.098Z,11.20
2023-02-19T05:37:00.951Z,11.20
2023-02-19T05:39:28.031Z,11.30
2023-02-19T05:41:54.907Z,11.30
2023-02-19T05:44:21.822Z,11.30
2023-02-19T05:46:48.764Z,11.40
2023-02-19T05:49:15.707Z,11.30
2023-02-19T05:51:42.613Z,11.20
2023-02-19T05:54:10.274Z,11.30
2023-02-19T05:56:41.867Z,11.30
2023-02-19T05:59:22.496Z,11.30
2023-02-19T06:01:51.619Z,11.30
2023-02-19T06:04:20.105Z,11.30
2023-02-19T06:06:47.841Z,11.20
2023-02-19T06:09:14.924Z,11.30
2023-02-19T06:11:43.486Z,11.30
2023-02-19T06:14:13.616Z,11.30
2023-02-19T06:16:40.688Z,11.20
2023-02-19T06:19:07.696Z,11.30
2023-02-19T06:21:34.660Z,11.30
2023-02-19T06:24:08.001Z,11.30
2023-02-19T06:26:35.212Z,11.30
2023-02-19T06:29:02.107Z,11.20
2023-02-19T06:31:29.081Z,11.20
2023-02-19T06:33:56.089Z,11.20
2023-02-19T06:36:23.598Z,11.20
2023-02-19T06:38:51.179Z,11.10
2023-02-19T06:41:18.367Z,11.10
2023-02-19T06:43:46.663Z,11.10
2023-02-19T06:46:14.146Z,11.00
2023-02-19T06:48:43.290Z,11.00
2023-02-19T06:51:26.441Z,10.90
2023-02-19T06:53:53.988Z,10.90
2023-02-19T06:56:35.207Z,10.80
2023-02-19T06:59:04.653Z,10.80
2023-02-19T07:01:33.490Z,10.70
2023-02-19T07:04:00.907Z,10.70
2023-02-19T07:06:28.534Z,10.60
2023-02-19T07:08:57.215Z,10.60
2023-02-19T07:11:24.761Z,10.60
2023-02-19T07:14:03.142Z,10.60
2023-02-19T07:16:30.945Z,10.50
2023-02-19T07:18:59.346Z,10.50
2023-02-19T07:21:27.566Z,10.50
2023-02-19T07:23:54.594Z,10.50
2023-02-19T07:26:22.115Z,10.40
2023-02-19T07:28:51.236Z,10.40
2023-02-19T07:31:20.207Z,10.40
2023-02-19T07:33:48.210Z,10.40
2023-02-19T07:36:17.573Z,10.40
2023-02-19T07:38:45.379Z,10.50
2023-02-19T07:41:12.552Z,10.40
2023-02-19T07:43:40.290Z,10.40
2023-02-19T07:46:13.519Z,10.40
2023-02-19T07:48:42.734Z,10.40
2023-02-19T07:51:20.308Z,10.40
2023-02-19T07:53:50.250Z,10.40
2023-02-19T07:56:18.370Z,10.50
2023-02-19T07:58:46.412Z,10.50
2023-02-19T08:01:19.324Z,10.50
2023-02-19T08:03:48.187Z,10.50
2023-02-19T08:06:16.336Z,10.50
2023-02-19T08:08:43.250Z,10.60
2023-02-19T08:11:29.098Z,10.60
2023-02-19T08:13:56.170Z,10.60
2023-02-19T08:16:40.734Z,10.70
2023-02-19T08:19:09.807Z,10.70
2023-02-19T08:21:36.706Z,10.70
2023-02-19T08:24:03.844Z,10.80
2023-02-19T08:26:30.817Z,10.80
2023-02-19T08:28:59.063Z,10.80
2023-02-19T08:31:26.076Z,10.80
2023-02-19T08:33:53.330Z,10.70
2023-02-19T08:36:20.188Z,10.70
2023-02-19T08:38:47.059Z,10.70
2023-02-19T08:41:14.660Z,10.70
2023-02-19T08:43:42.582Z,10.70
2023-02-19T08:46:10.958Z,10.70
2023-02-19T08:48:38.804Z,10.60
2023-02-19T08:51:09.614Z,10.60
2023-02-19T08:53:38.718Z,10.60
2023-02-19T08:56:15.595Z,10.60
2023-02-19T08:58:42.585Z,10.70
2023-02-19T09:01:12.325Z,10.70
2023-02-19T09:03:39.828Z,10.70
2023-02-19T09:06:06.989Z,10.70
2023-02-19T09:08:33.917Z,10.80
2023-02-19T09:11:03.578Z,10.80
2023-02-19T09:13:30.933Z,10.80
2023-02-19T09:15:57.955Z,10.70
2023-02-19T09:18:25.944Z,10.70
2023-02-19T09:20:52.886Z,10.70
2023-02-19T09:23:20.030Z,10.60
2023-02-19T09:25:47.025Z,10.60
2023-02-19T09:28:14.007Z,10.60
2023-02-19T09:30:40.952Z,10.60
2023-02-19T09:33:07.934Z,10.60
2023-02-19T09:35:34.890Z,10.60
2023-02-19T09:38:03.276Z,10.60
2023-02-19T09:40:30.793Z,10.70
2023-02-19T09:42:58.927Z,10.70
2023-02-19T09:45:26.984Z,10.70
2023-02-19T09:47:57.554Z,10.80
2023-02-19T09:50:37.244Z,10.80
2023-02-19T09:53:22.250Z,10.80
2023-02-19T09:55:50.219Z,10.80
2023-02-19T09:58:34.776Z,10.80
2023-02-19T10:01:04.655Z,10.80
2023-02-19T10:03:35.108Z,10.90
2023-02-19T10:06:09.435Z,10.90
2023-02-19T10:08:39.872Z,10.90
2023-02-19T10:11:07.640Z,11.00
2023-02-19T10:14:01.883Z,11.00
2023-02-19T10:16:29.728Z,11.20
2023-02-19T10:18:56.853Z,11.60
2023-02-19T10:21:28.240Z,12.20
2023-02-19T10:24:02.863Z,12.80
2023-02-19T10:26:35.049Z,13.40
2023-02-19T10:29:03.511Z,13.50
2023-02-19T10:31:32.908Z,13.40
2023-02-19T10:34:02.198Z,13.70
2023-02-19T10:36:33.565Z,13.90
2023-02-19T10:39:03.574Z,14.20
2023-02-19T10:41:32.041Z,14.60
2023-02-19T10:44:24.758Z,14.80
2023-02-19T10:46:55.793Z,14.80
2023-02-19T10:49:23.434Z,14.80
2023-02-19T10:51:53.131Z,14.90
2023-02-19T10:54:36.261Z,14.90
2023-02-19T10:57:15.539Z,15.10
2023-02-19T10:59:58.100Z,15.10
2023-02-19T11:02:26.173Z,15.10
2023-02-19T11:05:18.176Z,15.30
2023-02-19T11:07:48.429Z,15.40
2023-02-19T11:10:33.952Z,15.50
2023-02-19T11:13:04.526Z,15.60
2023-02-19T11:15:33.044Z,15.70
2023-02-19T11:18:14.900Z,15.80
2023-02-19T11:21:03.543Z,15.90
2023-02-19T11:23:48.956Z,15.80
2023-02-19T11:26:24.258Z,15.70
2023-02-19T11:29:16.844Z,15.70
2023-02-19T11:31:44.600Z,15.80
2023-02-19T11:34:15.548Z,15.80
2023-02-19T11:36:43.501Z,15.90
2023-02-19T11:39:16.910Z,16.00
2023-02-19T11:42:02.438Z,16.10
2023-02-19T11:44:30.970Z,16.10
2023-02-19T11:47:15.493Z,16.00
2023-02-19T11:50:13.055Z,15.90
2023-02-19T11:53:06.070Z,15.90
2023-02-19T11:55:50.095Z,15.90
2023-02-19T11:58:54.159Z,15.90
2023-02-19T12:01:27.526Z,15.80
2023-02-19T12:04:06.156Z,15.80
2023-02-19T12:06:55.001Z,15.90
2023-02-19T12:09:31.429Z,15.90
2023-02-19T12:12:26.119Z,15.80
2023-02-19T12:15:08.316Z,15.70
2023-02-19T12:17:56.365Z,15.80
2023-02-19T12:20:40.459Z,15.80
2023-02-19T12:23:40.668Z,15.80
2023-02-19T12:26:41.186Z,15.90
2023-02-19T12:29:44.060Z,16.00
2023-02-19T12:32:17.805Z,16.20
2023-02-19T12:35:02.923Z,16.20
2023-02-19T12:37:50.682Z,16.20
2023-02-19T12:40:39.599Z,16.10
2023-02-19T12:43:19.879Z,16.00
2023-02-19T12:45:52.443Z,15.90
2023-02-19T12:48:50.151Z,16.00
2023-02-19T12:51:44.513Z,16.10
2023-02-19T12:54:34.968Z,16.30
2023-02-19T12:57:21.160Z,16.50
2023-02-19T13:00:15.116Z,16.40
2023-02-19T13:02:59.571Z,16.20
2023-02-19T13:05:36.189Z,15.80
2023-02-19T13:08:11.742Z,15.50
2023-02-19T13:11:01.259Z,15.20
2023-02-19T13:13:34.581Z,14.90
2023-02-19T13:16:11.242Z,14.70
2023-02-19T13:19:00.712Z,14.50
2023-02-19T13:21:53.410Z,14.40
2023-02-19T13:24:35.169Z,14.30
2023-02-19T13:27:17.581Z,14.30
2023-02-19T13:29:57.011Z,14.30
2023-02-19T13:32:46.069Z,14.30
2023-02-19T13:35:51.150Z,14.20
2023-02-19T13:38:19.365Z,14.20
2023-02-19T13:40:58.083Z,14.10
2023-02-19T13:43:28.981Z,14.00
2023-02-19T13:46:04.664Z,14.00
2023-02-19T13:48:34.948Z,13.90
2023-02-19T13:51:22.687Z,13.80
2023-02-19T13:54:01.357Z,13.60
2023-02-19T13:56:33.579Z,13.60
2023-02-19T13:59:12.670Z,13.50
2023-02-19T14:01:52.097Z,13.40
2023-02-19T14:04:25.966Z,13.20
2023-02-19T14:07:05.839Z,13.10
2023-02-19T14:09:44.052Z,13.00
2023-02-19T14:12:12.171Z,12.90
2023-02-19T14:14:51.610Z,12.90
2023-02-19T14:17:42.291Z,12.80
2023-02-19T14:20:09.532Z,12.80
2023-02-19T14:22:45.989Z,12.80
2023-02-19T14:25:29.750Z,12.80
2023-02-19T14:28:06.138Z,12.70
2023-02-19T14:30:40.645Z,12.70
2023-02-19T14:33:11.485Z,12.70
2023-02-19T14:35:43.125Z,12.70
2023-02-19T14:38:29.199Z,12.80
2023-02-19T14:40:57.041Z,12.80
2023-02-19T14:43:25.957Z,12.80
2023-02-19T14:46:00.994Z,12.80
2023-02-19T14:48:42.528Z,12.80
2023-02-19T14:51:16.340Z,12.80
2023-02-19T14:53:46.356Z,12.80
2023-02-19T14:56:25.802Z,12.80
2023-02-19T14:59:32.710Z,12.80
2023-02-19T15:02:03.413Z,12.70
2023-02-19T15:04:37.108Z,12.70
2023-02-19T15:07:10.901Z,12.60
2023-02-19T15:09:42.942Z,12.50
2023-02-19T15:12:22.098Z,12.50
2023-02-19T15:14:52.203Z,12.40
2023-02-19T15:17:28.610Z,12.30
2023-02-19T15:19:59.251Z,12.30
2023-02-19T15:22:37.809Z,12.10
2023-02-19T15:25:06.717Z,12.00
2023-02-19T15:27:35.604Z,12.00
2023-02-19T15:30:03.295Z,11.90
2023-02-19T15:32:31.227Z,11.90
2023-02-19T15:35:01.776Z,11.90
2023-02-19T15:37:33.072Z,11.90
2023-02-19T15:40:07.802Z,11.80
2023-02-19T15:42:37.750Z,11.80
2023-02-19T15:45:10.409Z,11.80
2023-02-19T15:47:38.141Z,11.70
2023-02-19T15:50:13.784Z,11.70
2023-02-19T15:52:59.409Z,11.70
2023-02-19T15:55:30.671Z,11.70
2023-02-19T15:58:09.673Z,11.70
2023-02-19T16:00:51.457Z,11.60
2023-02-19T16:03:25.484Z,11.60
2023-02-19T16:06:01.178Z,11.50
2023-02-19T16:08:36.248Z,11.50
2023-02-19T16:11:23.491Z,11.40
2023-02-19T16:14:13.753Z,11.50
2023-02-19T16:16:43.659Z,11.50
2023-02-19T16:19:11.575Z,11.40
2023-02-19T16:21:39.757Z,11.40
2023-02-19T16:24:31.924Z,11.40
2023-02-19T16:27:01.333Z,11.30
2023-02-19T16:29:32.096Z,11.30
2023-02-19T16:32:17.219Z,11.30
2023-02-19T16:34:54.081Z,11.20
2023-02-19T16:37:37.111Z,11.20
2023-02-19T16:40:15.083Z,11.20
2023-02-19T16:42:49.502Z,11.30
2023-02-19T16:45:18.220Z,11.20
2023-02-19T16:47:52.135Z,11.20
2023-02-19T16:50:24.053Z,11.10
2023-02-19T16:53:04.209Z,10.90
2023-02-19T16:55:35.309Z,10.90
2023-02-19T16:58:03.407Z,10.80
2023-02-19T17:00:33.252Z,10.70
2023-02-19T17:03:09.641Z,10.60
2023-02-19T17:05:41.437Z,10.60
2023-02-19T17:08:28.585Z,10.50
2023-02-19T17:10:56.580Z,10.50
2023-02-19T17:13:24.263Z,10.50
2023-02-19T17:15:52.196Z,10.50
2023-02-19T17:18:20.574Z,10.50
2023-02-19T17:21:02.567Z,10.40
2023-02-19T17:23:30.471Z,10.40
2023-02-19T17:26:01.452Z,10.30
2023-02-19T17:28:28.931Z,10.30
2023-02-19T17:30:56.768Z,10.30
2023-02-19T17:33:24.537Z,10.20
2023-02-19T17:35:52.284Z,10.20
2023-02-19T17:38:20.082Z,10.20
2023-02-19T17:40:48.586Z,10.20
2023-02-19T17:43:16.767Z,10.20
2023-02-19T17:45:44.319Z,10.20
2023-02-19T17:48:16.212Z,10.10
2023-02-19T17:50:44.291Z,10.10
2023-02-19T17:53:13.195Z,10.10
2023-02-19T17:55:40.961Z,10.10
2023-02-19T17:58:09.075Z,10.00
2023-02-19T18:00:38.366Z,10.00
2023-02-19T18:03:08.146Z,10.00
2023-02-19T18:05:35.858Z,10.00
2023-02-19T18:08:08.613Z,10.00
2023-02-19T18:10:36.871Z,10.10
2023-02-19T18:13:04.736Z,10.00
2023-02-19T18:15:32.457Z,10.00
2023-02-19T18:18:00.219Z,10.00
2023-02-19T18:20:31.235Z,10.00
2023-02-19T18:22:59.940Z,9.90
2023-02-19T18:25:28.009Z,9.90
2023-02-19T18:27:57.234Z,9.90
2023-02-19T18:30:24.861Z,9.90
2023-02-19T18:32:52.912Z,10.00
2023-02-19T18:35:22.978Z,10.00
2023-02-19T18:37:53.249Z,10.00
2023-02-19T18:40:23.319Z,9.90
2023-02-19T18:42:51.325Z,9.90
2023-02-19T18:45:19.806Z,9.90
2023-02-19T18:47:50.225Z,9.80
2023-02-19T18:50:19.372Z,9.80
2023-02-19T18:52:50.664Z,9.80
2023-02-19T18:55:18.704Z,9.80
2023-02-19T18:57:47.669Z,9.70
2023-02-19T19:00:26.820Z,9.70
2023-02-19T19:03:00.179Z,9.70
2023-02-19T19:05:29.234Z,9.70
2023-02-19T19:07:59.965Z,9.60
2023-02-19T19:10:28.864Z,9.60
2023-02-19T19:12:56.731Z,9.60
2023-02-19T19:15:24.998Z,9.60
2023-02-19T19:17:53.504Z,9.50
2023-02-19T19:20:26.940Z,9.50
2023-02-19T19:22:55.028Z,9.50
2023-02-19T19:25:23.828Z,9.50
2023-02-19T19:27:55.641Z,9.40
2023-02-19T19:30:23.508Z,9.40
2023-02-19T19:32:53.799Z,9.40
2023-02-19T19:35:22.737Z,9.40
2023-02-19T19:37:51.069Z,9.40
2023-02-19T19:40:19.789Z,9.30
2023-02-19T19:42:48.408Z,9.30
2023-02-19T19:45:16.133Z,9.30
2023-02-19T19:47:48.794Z,9.30
2023-02-19T19:50:18.977Z,9.30
2023-02-19T19:52:47.009Z,9.40
2023-02-19T19:55:15.320Z,9.40
2023-02-19T19:57:43.651Z,9.40
2023-02-19T20:00:17.763Z,9.50
2023-02-19T20:02:49.249Z,9.50
2023-02-19T20:05:18.272Z,9.50
2023-02-19T20:07:46.460Z,9.50
2023-02-19T20:10:17.586Z,9.50
2023-02-19T20:12:45.772Z,9.60
2023-02-19T20:15:14.112Z,9.60
2023-02-19T20:17:41.639Z,9.60
2023-02-19T20:20:10.375Z,9.60
2023-02-19T20:22:39.943Z,9.50
2023-02-19T20:25:07.957Z,9.50
2023-02-19T20:27:36.034Z,9.40
2023-02-19T20:30:05.293Z,9.40
2023-02-19T20:32:33.433Z,9.40
2023-02-19T20:35:01.903Z,9.30
2023-02-19T20:37:29.614Z,9.30
2023-02-19T20:39:59.397Z,9.30
2023-02-19T20:42:26.864Z,9.20
2023-02-19T20:44:54.849Z,9.20
2023-02-19T20:47:22.988Z,9.10
2023-02-19T20:49:52.200Z,9.00
2023-02-19T20:52:21.573Z,9.00
2023-02-19T20:54:49.312Z,8.90
2023-02-19T20:57:17.086Z,8.80
2023-02-19T20:59:46.741Z,8.80
2023-02-19T21:02:25.511Z,8.60
2023-02-19T21:04:53.346Z,8.60
2023-02-19T21:07:22.185Z,8.60
2023-02-19T21:09:50.146Z,8.50
2023-02-19T21:12:18.095Z,8.40
2023-02-19T21:14:45.839Z,8.40
2023-02-19T21:17:17.408Z,8.40
2023-02-19T21:19:44.959Z,8.30
2023-02-19T21:22:12.591Z,8.20
2023-02-19T21:24:39.850Z,8.20
2023-02-19T21:27:07.082Z,8.20
2023-02-19T21:29:34.336Z,8.20
2023-02-19T21:32:03.978Z,8.10
2023-02-19T21:34:31.198Z,8.00
2023-02-19T21:36:58.370Z,8.00
2023-02-19T21:39:27.699Z,7.90
2023-02-19T21:41:55.340Z,7.90
2023-02-19T21:44:22.996Z,7.90
2023-02-19T21:46:49.989Z,7.80
2023-02-19T21:49:17.659Z,7.80
2023-02-19T21:51:48.096Z,7.80
2023-02-19T21:54:18.704Z,7.70
2023-02-19T21:56:45.681Z,7.70
2023-02-19T21:59:13.085Z,7.60
2023-02-19T22:01:40.676Z,7.50
2023-02-19T22:04:08.989Z,7.50
2023-02-19T22:06:36.186Z,7.40
2023-02-19T22:09:03.842Z,7.40
2023-02-19T22:11:30.921Z,7.30
2023-02-19T22:13:58.344Z,7.30
2023-02-19T22:16:25.753Z,7.30
2023-02-19T22:18:55.735Z,7.30
2023-02-19T22:21:24.410Z,7.30
2023-02-19T22:23:52.769Z,7.30
2023-02-19T22:26:23.485Z,7.30
2023-02-19T22:28:50.960Z,7.20
2023-02-19T22:31:19.860Z,7.20
2023-02-19T22:33:47.170Z,7.20
2023-02-19T22:36:22.574Z,7.20
2023-02-19T22:38:50.054Z,7.10
2023-02-19T22:41:17.883Z,7.10
2023-02-19T22:43:45.533Z,7.10
2023-02-19T22:46:15.865Z,7.10
2023-02-19T22:48:42.955Z,7.10
2023-02-19T22:51:15.188Z,7.00
2023-02-19T22:53:53.923Z,7.00
2023-02-19T22:56:23.289Z,7.00
2023-02-19T22:58:50.596Z,6.90
2023-02-19T23:01:18.299Z,6.90
2023-02-19T23:03:47.013Z,6.80
2023-02-19T23:06:14.918Z,6.80
2023-02-19T23:08:43.010Z,6.80
2023-02-19T23:11:11.774Z,6.80
2023-02-19T23:13:40.336Z,6.80
2023-02-19T23:16:07.427Z,6.80
2023-02-19T23:18:34.308Z,6.70
2023-02-19T23:21:01.181Z,6.70
2023-02-19T23:23:28.135Z,6.70
2023-02-19T23:25:55.047Z,6.70
2023-02-19T23:28:22.073Z,6.70
2023-02-19T23:30:49.152Z,6.70
2023-02-19T23:33:16.466Z,6.60
2023-02-19T23:35:43.350Z,6.60
2023-02-19T23:38:10.246Z,6.60
2023-02-19T23:40:37.153Z,6.60
2023-02-19T23:43:04.040Z,6.60
2023-02-19T23:45:30.922Z,6.50
2023-02-19T23:47:57.870Z,6.50
2023-02-19T23:50:24.924Z,6.50
2023-02-19T23:52:51.815Z,6.50
2023-02-19T23:55:18.733Z,6.50
2023-02-19T23:57:45.588Z,6.40
